KFNL/FNL METAR and TAF weather

Enter ICAO airport designator
Station Type Date Time Source
KFNL METAR 2021/01/27 12:56 UTC NOAA

KFNL 271256Z 00000KT 3SM OVC006 M11/M12 A3005 RMK AO2 SFC VIS 7 SNE25 SLP230 P0000 T11061122 FZRANO


Station Type Date Time Source
KFNL Decoded METAR 2021/01/27 12:56 UTC NOAA

Fort Collins/Loveland, Fort Collins-Loveland Municipal Airport, CO, United States (KFNL) 40-27N 105-01W
Jan 27, 2021 - 07:56 AM EST / 2021.01.27 1256 UTC
Wind: Calm:0
Visibility: 3 mile(s):0
Sky conditions: overcast
Precipitation last hour: A trace
Temperature: 12.9 F (-10.6 C)
Dew Point: 10.0 F (-12.2 C)
Relative Humidity: 87%
Pressure (altimeter): 30.05 in. Hg (1017 hPa)
ob: KFNL 271256Z 00000KT 3SM OVC006 M11/M12 A3005 RMK AO2 SFC VIS 7 SNE25 SLP230 P0000 T11061122 FZRANO
cycle: 13

Station Type Date Time Source
KFNL TAF UTC NOAA

Error!

Example: see airport list